sensor_id;sensor_type;location;lat;lon;timestamp;P1;durP1;ratioP1;P2;durP2;ratioP2
17915;SDS011;9083;49.156;8.982;2023-04-07T00:00:45;9.53;;;5.70;;
17915;SDS011;9083;49.156;8.982;2023-04-07T00:03:11;10.47;;;6.17;;
17915;SDS011;9083;49.156;8.982;2023-04-07T00:05:38;7.63;;;6.00;;
17915;SDS011;9083;49.156;8.982;2023-04-07T00:08:04;9.53;;;6.07;;
17915;SDS011;9083;49.156;8.982;2023-04-07T00:10:32;9.13;;;5.90;;
17915;SDS011;9083;49.156;8.982;2023-04-07T00:12:58;11.63;;;6.40;;
17915;SDS011;9083;49.156;8.982;2023-04-07T00:15:25;9.33;;;6.57;;
17915;SDS011;9083;49.156;8.982;2023-04-07T00:17:51;8.47;;;6.27;;
17915;SDS011;9083;49.156;8.982;2023-04-07T00:20:18;9.03;;;5.83;;
17915;SDS011;9083;49.156;8.982;2023-04-07T00:22:44;7.07;;;5.43;;
17915;SDS011;9083;49.156;8.982;2023-04-07T00:25:11;9.20;;;6.20;;
17915;SDS011;9083;49.156;8.982;2023-04-07T00:27:39;7.83;;;5.73;;
17915;SDS011;9083;49.156;8.982;2023-04-07T00:30:05;13.63;;;6.77;;
17915;SDS011;9083;49.156;8.982;2023-04-07T00:32:32;8.87;;;6.53;;
17915;SDS011;9083;49.156;8.982;2023-04-07T00:34:58;10.53;;;6.23;;
17915;SDS011;9083;49.156;8.982;2023-04-07T00:37:25;9.13;;;6.20;;
17915;SDS011;9083;49.156;8.982;2023-04-07T00:39:51;8.43;;;6.27;;
17915;SDS011;9083;49.156;8.982;2023-04-07T00:42:17;10.17;;;6.80;;
17915;SDS011;9083;49.156;8.982;2023-04-07T00:44:45;9.17;;;6.73;;
17915;SDS011;9083;49.156;8.982;2023-04-07T00:47:12;8.33;;;5.87;;
17915;SDS011;9083;49.156;8.982;2023-04-07T00:49:38;8.67;;;6.23;;
17915;SDS011;9083;49.156;8.982;2023-04-07T00:52:05;9.33;;;6.23;;
17915;SDS011;9083;49.156;8.982;2023-04-07T00:54:31;10.07;;;6.60;;
17915;SDS011;9083;49.156;8.982;2023-04-07T00:56:58;8.80;;;5.87;;
17915;SDS011;9083;49.156;8.982;2023-04-07T00:59:25;7.87;;;6.30;;
17915;SDS011;9083;49.156;8.982;2023-04-07T01:01:57;9.13;;;6.07;;
17915;SDS011;9083;49.156;8.982;2023-04-07T01:04:27;10.27;;;6.33;;
17915;SDS011;9083;49.156;8.982;2023-04-07T01:06:56;8.87;;;6.13;;
17915;SDS011;9083;49.156;8.982;2023-04-07T01:09:25;7.27;;;5.53;;
17915;SDS011;9083;49.156;8.982;2023-04-07T01:11:56;9.97;;;5.87;;
17915;SDS011;9083;49.156;8.982;2023-04-07T01:14:24;8.87;;;5.63;;
17915;SDS011;9083;49.156;8.982;2023-04-07T01:16:56;8.57;;;5.93;;
17915;SDS011;9083;49.156;8.982;2023-04-07T01:19:28;8.70;;;5.63;;
17915;SDS011;9083;49.156;8.982;2023-04-07T01:21:57;8.17;;;6.50;;
17915;SDS011;9083;49.156;8.982;2023-04-07T01:24:28;9.40;;;5.87;;
17915;SDS011;9083;49.156;8.982;2023-04-07T01:27:04;8.43;;;6.30;;
17915;SDS011;9083;49.156;8.982;2023-04-07T01:29:34;9.03;;;6.03;;
17915;SDS011;9083;49.156;8.982;2023-04-07T01:32:04;10.23;;;6.63;;
17915;SDS011;9083;49.156;8.982;2023-04-07T01:34:32;9.67;;;6.17;;
17915;SDS011;9083;49.156;8.982;2023-04-07T01:37:00;8.07;;;5.63;;
17915;SDS011;9083;49.156;8.982;2023-04-07T01:39:27;8.53;;;6.03;;
17915;SDS011;9083;49.156;8.982;2023-04-07T01:41:54;9.07;;;6.37;;
17915;SDS011;9083;49.156;8.982;2023-04-07T01:44:21;6.57;;;5.53;;
17915;SDS011;9083;49.156;8.982;2023-04-07T01:46:49;7.97;;;5.53;;
17915;SDS011;9083;49.156;8.982;2023-04-07T01:49:16;10.13;;;5.73;;
17915;SDS011;9083;49.156;8.982;2023-04-07T01:51:42;10.07;;;6.10;;
17915;SDS011;9083;49.156;8.982;2023-04-07T01:54:14;9.40;;;5.90;;
17915;SDS011;9083;49.156;8.982;2023-04-07T01:56:40;8.97;;;6.37;;
17915;SDS011;9083;49.156;8.982;2023-04-07T01:59:07;8.43;;;5.83;;
17915;SDS011;9083;49.156;8.982;2023-04-07T02:01:33;9.20;;;5.93;;
17915;SDS011;9083;49.156;8.982;2023-04-07T02:04:03;10.57;;;6.17;;
17915;SDS011;9083;49.156;8.982;2023-04-07T02:06:32;11.23;;;5.73;;
17915;SDS011;9083;49.156;8.982;2023-04-07T02:09:02;10.73;;;6.43;;
17915;SDS011;9083;49.156;8.982;2023-04-07T02:11:29;7.53;;;6.43;;
17915;SDS011;9083;49.156;8.982;2023-04-07T02:13:57;9.67;;;6.13;;
17915;SDS011;9083;49.156;8.982;2023-04-07T02:16:25;9.70;;;6.73;;
17915;SDS011;9083;49.156;8.982;2023-04-07T02:18:53;9.00;;;6.20;;
17915;SDS011;9083;49.156;8.982;2023-04-07T02:21:21;9.57;;;6.87;;
17915;SDS011;9083;49.156;8.982;2023-04-07T02:23:48;11.03;;;6.93;;
17915;SDS011;9083;49.156;8.982;2023-04-07T02:26:14;11.30;;;7.70;;
17915;SDS011;9083;49.156;8.982;2023-04-07T02:28:41;11.57;;;7.43;;
17915;SDS011;9083;49.156;8.982;2023-04-07T02:31:07;12.27;;;7.23;;
17915;SDS011;9083;49.156;8.982;2023-04-07T02:33:34;12.77;;;7.87;;
17915;SDS011;9083;49.156;8.982;2023-04-07T02:36:00;11.67;;;7.87;;
17915;SDS011;9083;49.156;8.982;2023-04-07T02:38:28;12.93;;;7.70;;
17915;SDS011;9083;49.156;8.982;2023-04-07T02:40:55;11.20;;;7.67;;
17915;SDS011;9083;49.156;8.982;2023-04-07T02:43:22;15.13;;;8.67;;
17915;SDS011;9083;49.156;8.982;2023-04-07T02:45:49;13.17;;;8.13;;
17915;SDS011;9083;49.156;8.982;2023-04-07T02:48:16;12.10;;;8.07;;
17915;SDS011;9083;49.156;8.982;2023-04-07T02:50:42;15.93;;;9.53;;
17915;SDS011;9083;49.156;8.982;2023-04-07T02:53:08;14.17;;;8.83;;
17915;SDS011;9083;49.156;8.982;2023-04-07T02:55:36;12.80;;;8.40;;
17915;SDS011;9083;49.156;8.982;2023-04-07T02:58:03;14.03;;;8.13;;
17915;SDS011;9083;49.156;8.982;2023-04-07T03:00:29;16.27;;;9.40;;
17915;SDS011;9083;49.156;8.982;2023-04-07T03:02:56;14.50;;;8.53;;
17915;SDS011;9083;49.156;8.982;2023-04-07T03:05:22;14.47;;;8.57;;
17915;SDS011;9083;49.156;8.982;2023-04-07T03:07:48;14.17;;;9.07;;
17915;SDS011;9083;49.156;8.982;2023-04-07T03:10:15;15.00;;;9.23;;
17915;SDS011;9083;49.156;8.982;2023-04-07T03:12:43;11.83;;;8.13;;
17915;SDS011;9083;49.156;8.982;2023-04-07T03:15:09;13.43;;;8.17;;
17915;SDS011;9083;49.156;8.982;2023-04-07T03:17:36;13.47;;;8.07;;
17915;SDS011;9083;49.156;8.982;2023-04-07T03:20:02;12.13;;;8.00;;
17915;SDS011;9083;49.156;8.982;2023-04-07T03:22:28;15.03;;;8.87;;
17915;SDS011;9083;49.156;8.982;2023-04-07T03:24:55;15.23;;;8.03;;
17915;SDS011;9083;49.156;8.982;2023-04-07T03:27:21;12.33;;;7.97;;
17915;SDS011;9083;49.156;8.982;2023-04-07T03:29:49;15.03;;;8.70;;
17915;SDS011;9083;49.156;8.982;2023-04-07T03:32:16;11.67;;;7.60;;
17915;SDS011;9083;49.156;8.982;2023-04-07T03:34:42;12.87;;;7.80;;
17915;SDS011;9083;49.156;8.982;2023-04-07T03:37:08;14.67;;;8.27;;
17915;SDS011;9083;49.156;8.982;2023-04-07T03:39:35;13.30;;;8.03;;
17915;SDS011;9083;49.156;8.982;2023-04-07T03:42:02;16.83;;;8.87;;
17915;SDS011;9083;49.156;8.982;2023-04-07T03:44:28;14.07;;;8.17;;
17915;SDS011;9083;49.156;8.982;2023-04-07T03:46:56;12.03;;;7.77;;
17915;SDS011;9083;49.156;8.982;2023-04-07T03:49:22;14.37;;;8.27;;
17915;SDS011;9083;49.156;8.982;2023-04-07T03:51:49;12.37;;;7.20;;
17915;SDS011;9083;49.156;8.982;2023-04-07T03:54:15;12.67;;;7.60;;
17915;SDS011;9083;49.156;8.982;2023-04-07T03:56:41;12.93;;;7.43;;
17915;SDS011;9083;49.156;8.982;2023-04-07T03:59:08;10.43;;;7.53;;
17915;SDS011;9083;49.156;8.982;2023-04-07T04:01:34;11.40;;;7.80;;
17915;SDS011;9083;49.156;8.982;2023-04-07T04:04:02;12.40;;;8.10;;
17915;SDS011;9083;49.156;8.982;2023-04-07T04:06:29;12.17;;;7.97;;
17915;SDS011;9083;49.156;8.982;2023-04-07T04:08:55;16.97;;;8.13;;
17915;SDS011;9083;49.156;8.982;2023-04-07T04:11:21;14.83;;;7.77;;
17915;SDS011;9083;49.156;8.982;2023-04-07T04:13:48;12.63;;;7.90;;
17915;SDS011;9083;49.156;8.982;2023-04-07T04:16:14;12.60;;;7.87;;
17915;SDS011;9083;49.156;8.982;2023-04-07T04:18:41;10.37;;;7.63;;
17915;SDS011;9083;49.156;8.982;2023-04-07T04:21:09;12.40;;;7.63;;
17915;SDS011;9083;49.156;8.982;2023-04-07T04:23:35;12.03;;;7.83;;
17915;SDS011;9083;49.156;8.982;2023-04-07T04:26:01;13.00;;;7.77;;
17915;SDS011;9083;49.156;8.982;2023-04-07T04:28:28;13.33;;;7.13;;
17915;SDS011;9083;49.156;8.982;2023-04-07T04:30:55;12.30;;;7.67;;
17915;SDS011;9083;49.156;8.982;2023-04-07T04:33:21;12.20;;;7.23;;
17915;SDS011;9083;49.156;8.982;2023-04-07T04:35:48;18.33;;;8.00;;
17915;SDS011;9083;49.156;8.982;2023-04-07T04:38:16;10.63;;;6.83;;
17915;SDS011;9083;49.156;8.982;2023-04-07T04:40:42;11.13;;;7.80;;
17915;SDS011;9083;49.156;8.982;2023-04-07T04:43:09;11.03;;;7.67;;
17915;SDS011;9083;49.156;8.982;2023-04-07T04:45:35;12.23;;;7.37;;
17915;SDS011;9083;49.156;8.982;2023-04-07T04:48:01;11.97;;;7.30;;
17915;SDS011;9083;49.156;8.982;2023-04-07T04:50:28;14.80;;;7.13;;
17915;SDS011;9083;49.156;8.982;2023-04-07T04:52:54;11.30;;;7.10;;
17915;SDS011;9083;49.156;8.982;2023-04-07T04:55:22;10.77;;;7.27;;
17915;SDS011;9083;49.156;8.982;2023-04-07T04:57:48;11.07;;;7.33;;
17915;SDS011;9083;49.156;8.982;2023-04-07T05:00:15;10.07;;;7.30;;
17915;SDS011;9083;49.156;8.982;2023-04-07T05:02:41;10.77;;;6.83;;
17915;SDS011;9083;49.156;8.982;2023-04-07T05:05:08;11.13;;;7.10;;
17915;SDS011;9083;49.156;8.982;2023-04-07T05:07:34;10.20;;;6.63;;
17915;SDS011;9083;49.156;8.982;2023-04-07T05:10:01;14.77;;;7.70;;
17915;SDS011;9083;49.156;8.982;2023-04-07T05:12:29;11.67;;;7.00;;
17915;SDS011;9083;49.156;8.982;2023-04-07T05:15:01;11.23;;;6.47;;
17915;SDS011;9083;49.156;8.982;2023-04-07T05:17:27;10.20;;;6.73;;
17915;SDS011;9083;49.156;8.982;2023-04-07T05:19:54;9.63;;;7.10;;
17915;SDS011;9083;49.156;8.982;2023-04-07T05:22:20;10.17;;;6.67;;
17915;SDS011;9083;49.156;8.982;2023-04-07T05:24:46;12.73;;;5.90;;
17915;SDS011;9083;49.156;8.982;2023-04-07T05:27:13;9.67;;;6.97;;
17915;SDS011;9083;49.156;8.982;2023-04-07T05:29:41;10.17;;;6.70;;
17915;SDS011;9083;49.156;8.982;2023-04-07T05:32:07;11.07;;;6.50;;
17915;SDS011;9083;49.156;8.982;2023-04-07T05:34:33;10.43;;;6.10;;
17915;SDS011;9083;49.156;8.982;2023-04-07T05:37:00;11.40;;;7.20;;
17915;SDS011;9083;49.156;8.982;2023-04-07T05:39:27;12.23;;;6.73;;
17915;SDS011;9083;49.156;8.982;2023-04-07T05:41:53;10.83;;;6.93;;
17915;SDS011;9083;49.156;8.982;2023-04-07T05:44:21;9.63;;;6.53;;
17915;SDS011;9083;49.156;8.982;2023-04-07T05:46:49;11.73;;;6.80;;
17915;SDS011;9083;49.156;8.982;2023-04-07T05:49:15;11.07;;;7.40;;
17915;SDS011;9083;49.156;8.982;2023-04-07T05:51:42;8.33;;;5.93;;
17915;SDS011;9083;49.156;8.982;2023-04-07T05:54:08;9.17;;;5.90;;
17915;SDS011;9083;49.156;8.982;2023-04-07T05:56:35;9.33;;;6.13;;
17915;SDS011;9083;49.156;8.982;2023-04-07T05:59:01;13.30;;;6.63;;
17915;SDS011;9083;49.156;8.982;2023-04-07T06:01:27;10.97;;;7.13;;
17915;SDS011;9083;49.156;8.982;2023-04-07T06:03:55;11.30;;;6.80;;
17915;SDS011;9083;49.156;8.982;2023-04-07T06:06:22;10.60;;;6.87;;
17915;SDS011;9083;49.156;8.982;2023-04-07T06:08:50;10.33;;;6.80;;
17915;SDS011;9083;49.156;8.982;2023-04-07T06:11:16;12.50;;;6.50;;
17915;SDS011;9083;49.156;8.982;2023-04-07T06:13:43;9.77;;;6.33;;
17915;SDS011;9083;49.156;8.982;2023-04-07T06:16:09;11.63;;;7.10;;
17915;SDS011;9083;49.156;8.982;2023-04-07T06:18:35;12.77;;;7.10;;
17915;SDS011;9083;49.156;8.982;2023-04-07T06:21:03;14.50;;;7.60;;
17915;SDS011;9083;49.156;8.982;2023-04-07T06:23:30;8.30;;;6.33;;
17915;SDS011;9083;49.156;8.982;2023-04-07T06:25:56;9.83;;;6.30;;
17915;SDS011;9083;49.156;8.982;2023-04-07T06:28:23;14.17;;;7.07;;
17915;SDS011;9083;49.156;8.982;2023-04-07T06:30:49;9.33;;;5.90;;
17915;SDS011;9083;49.156;8.982;2023-04-07T06:33:16;11.13;;;6.57;;
17915;SDS011;9083;49.156;8.982;2023-04-07T06:35:42;10.17;;;6.27;;
17915;SDS011;9083;49.156;8.982;2023-04-07T06:38:10;9.77;;;6.53;;
17915;SDS011;9083;49.156;8.982;2023-04-07T06:40:37;10.93;;;6.23;;
17915;SDS011;9083;49.156;8.982;2023-04-07T06:43:03;9.60;;;6.13;;
17915;SDS011;9083;49.156;8.982;2023-04-07T06:45:30;8.93;;;5.87;;
17915;SDS011;9083;49.156;8.982;2023-04-07T06:47:56;10.83;;;6.17;;
17915;SDS011;9083;49.156;8.982;2023-04-07T06:50:23;9.00;;;6.40;;
17915;SDS011;9083;49.156;8.982;2023-04-07T06:52:49;10.93;;;7.07;;
17915;SDS011;9083;49.156;8.982;2023-04-07T06:55:20;11.57;;;7.20;;
17915;SDS011;9083;49.156;8.982;2023-04-07T06:57:46;10.60;;;6.70;;
17915;SDS011;9083;49.156;8.982;2023-04-07T07:00:15;10.40;;;6.87;;
17915;SDS011;9083;49.156;8.982;2023-04-07T07:02:41;10.50;;;6.53;;
17915;SDS011;9083;49.156;8.982;2023-04-07T07:05:07;11.90;;;7.07;;
17915;SDS011;9083;49.156;8.982;2023-04-07T07:07:38;10.73;;;6.80;;
17915;SDS011;9083;49.156;8.982;2023-04-07T07:10:05;10.17;;;6.97;;
17915;SDS011;9083;49.156;8.982;2023-04-07T07:12:33;10.60;;;6.97;;
17915;SDS011;9083;49.156;8.982;2023-04-07T07:14:59;9.60;;;6.37;;
17915;SDS011;9083;49.156;8.982;2023-04-07T07:17:26;9.07;;;5.67;;
17915;SDS011;9083;49.156;8.982;2023-04-07T07:19:52;8.77;;;6.20;;
17915;SDS011;9083;49.156;8.982;2023-04-07T07:22:19;10.10;;;6.30;;
17915;SDS011;9083;49.156;8.982;2023-04-07T07:24:45;9.57;;;5.93;;
17915;SDS011;9083;49.156;8.982;2023-04-07T07:27:12;7.87;;;5.80;;
17915;SDS011;9083;49.156;8.982;2023-04-07T07:29:40;19.30;;;11.63;;
17915;SDS011;9083;49.156;8.982;2023-04-07T07:32:06;15.70;;;9.80;;
17915;SDS011;9083;49.156;8.982;2023-04-07T07:34:32;15.17;;;7.20;;
17915;SDS011;9083;49.156;8.982;2023-04-07T07:36:59;10.63;;;7.60;;
17915;SDS011;9083;49.156;8.982;2023-04-07T07:39:25;9.83;;;5.73;;
17915;SDS011;9083;49.156;8.982;2023-04-07T07:41:52;8.77;;;5.23;;
17915;SDS011;9083;49.156;8.982;2023-04-07T07:44:19;10.03;;;6.20;;
17915;SDS011;9083;49.156;8.982;2023-04-07T07:46:48;11.37;;;6.47;;
17915;SDS011;9083;49.156;8.982;2023-04-07T07:49:14;8.50;;;5.70;;
17915;SDS011;9083;49.156;8.982;2023-04-07T07:51:41;12.87;;;6.50;;
17915;SDS011;9083;49.156;8.982;2023-04-07T07:54:07;6.20;;;5.43;;
17915;SDS011;9083;49.156;8.982;2023-04-07T07:56:34;8.47;;;5.23;;
17915;SDS011;9083;49.156;8.982;2023-04-07T07:59:01;10.33;;;5.53;;
17915;SDS011;9083;49.156;8.982;2023-04-07T08:01:27;8.57;;;4.87;;
17915;SDS011;9083;49.156;8.982;2023-04-07T08:03:55;9.37;;;4.93;;
17915;SDS011;9083;49.156;8.982;2023-04-07T08:06:21;6.80;;;5.00;;
17915;SDS011;9083;49.156;8.982;2023-04-07T08:08:47;10.07;;;5.93;;
17915;SDS011;9083;49.156;8.982;2023-04-07T08:11:14;12.87;;;5.43;;
17915;SDS011;9083;49.156;8.982;2023-04-07T08:13:41;8.47;;;5.73;;
17915;SDS011;9083;49.156;8.982;2023-04-07T08:16:09;7.67;;;5.87;;
17915;SDS011;9083;49.156;8.982;2023-04-07T08:18:35;9.30;;;5.60;;
17915;SDS011;9083;49.156;8.982;2023-04-07T08:21:04;9.37;;;5.57;;
17915;SDS011;9083;49.156;8.982;2023-04-07T08:23:33;9.67;;;5.43;;
17915;SDS011;9083;49.156;8.982;2023-04-07T08:25:59;10.67;;;5.30;;
17915;SDS011;9083;49.156;8.982;2023-04-07T08:28:26;7.20;;;4.70;;
17915;SDS011;9083;49.156;8.982;2023-04-07T08:30:52;7.40;;;5.17;;
17915;SDS011;9083;49.156;8.982;2023-04-07T08:33:19;7.50;;;4.70;;
17915;SDS011;9083;49.156;8.982;2023-04-07T08:35:45;6.07;;;4.40;;
17915;SDS011;9083;49.156;8.982;2023-04-07T08:38:13;7.57;;;4.60;;
17915;SDS011;9083;49.156;8.982;2023-04-07T08:40:40;6.73;;;4.37;;
17915;SDS011;9083;49.156;8.982;2023-04-07T08:43:07;7.30;;;4.57;;
17915;SDS011;9083;49.156;8.982;2023-04-07T08:45:34;3.27;;;3.07;;
17915;SDS011;9083;49.156;8.982;2023-04-07T08:48:02;7.03;;;4.87;;
17915;SDS011;9083;49.156;8.982;2023-04-07T08:50:30;9.90;;;4.47;;
17915;SDS011;9083;49.156;8.982;2023-04-07T08:52:56;8.73;;;4.40;;
17915;SDS011;9083;49.156;8.982;2023-04-07T08:55:27;11.23;;;4.80;;
17915;SDS011;9083;49.156;8.982;2023-04-07T08:57:53;7.20;;;5.03;;
17915;SDS011;9083;49.156;8.982;2023-04-07T09:00:20;7.37;;;4.47;;
17915;SDS011;9083;49.156;8.982;2023-04-07T09:02:46;9.37;;;5.23;;
17915;SDS011;9083;49.156;8.982;2023-04-07T09:05:13;9.07;;;4.80;;
17915;SDS011;9083;49.156;8.982;2023-04-07T09:07:39;6.77;;;3.90;;
17915;SDS011;9083;49.156;8.982;2023-04-07T09:10:07;6.67;;;4.93;;
17915;SDS011;9083;49.156;8.982;2023-04-07T09:12:35;7.97;;;4.43;;
17915;SDS011;9083;49.156;8.982;2023-04-07T09:15:02;7.73;;;4.10;;
17915;SDS011;9083;49.156;8.982;2023-04-07T09:17:31;7.00;;;3.90;;
17915;SDS011;9083;49.156;8.982;2023-04-07T09:19:58;5.77;;;3.97;;
17915;SDS011;9083;49.156;8.982;2023-04-07T09:22:34;7.33;;;3.93;;
17915;SDS011;9083;49.156;8.982;2023-04-07T09:25:11;7.73;;;3.50;;
17915;SDS011;9083;49.156;8.982;2023-04-07T09:27:39;5.53;;;4.00;;
17915;SDS011;9083;49.156;8.982;2023-04-07T09:30:09;3.97;;;3.03;;
17915;SDS011;9083;49.156;8.982;2023-04-07T09:32:36;5.40;;;3.00;;
17915;SDS011;9083;49.156;8.982;2023-04-07T09:35:03;3.57;;;3.00;;
17915;SDS011;9083;49.156;8.982;2023-04-07T09:37:30;10.50;;;5.97;;
17915;SDS011;9083;49.156;8.982;2023-04-07T09:39:56;9.53;;;4.30;;
17915;SDS011;9083;49.156;8.982;2023-04-07T09:42:23;5.40;;;4.73;;
17915;SDS011;9083;49.156;8.982;2023-04-07T09:44:52;22.47;;;7.73;;
17915;SDS011;9083;49.156;8.982;2023-04-07T09:47:24;9.07;;;6.43;;
17915;SDS011;9083;49.156;8.982;2023-04-07T09:49:51;19.03;;;11.30;;
17915;SDS011;9083;49.156;8.982;2023-04-07T09:52:18;10.43;;;6.73;;
17915;SDS011;9083;49.156;8.982;2023-04-07T09:54:45;25.43;;;10.43;;
17915;SDS011;9083;49.156;8.982;2023-04-07T09:57:12;11.93;;;7.33;;
17915;SDS011;9083;49.156;8.982;2023-04-07T09:59:41;22.43;;;11.37;;
17915;SDS011;9083;49.156;8.982;2023-04-07T10:02:10;13.67;;;7.60;;
17915;SDS011;9083;49.156;8.982;2023-04-07T10:04:37;11.33;;;8.77;;
17915;SDS011;9083;49.156;8.982;2023-04-07T10:07:04;13.63;;;8.00;;
17915;SDS011;9083;49.156;8.982;2023-04-07T10:09:31;11.40;;;7.83;;
17915;SDS011;9083;49.156;8.982;2023-04-07T10:11:57;13.97;;;10.87;;
17915;SDS011;9083;49.156;8.982;2023-04-07T10:14:26;27.93;;;16.80;;
17915;SDS011;9083;49.156;8.982;2023-04-07T10:16:52;14.10;;;9.17;;
17915;SDS011;9083;49.156;8.982;2023-04-07T10:19:20;13.43;;;6.47;;
17915;SDS011;9083;49.156;8.982;2023-04-07T10:21:48;10.73;;;7.67;;
17915;SDS011;9083;49.156;8.982;2023-04-07T10:24:18;8.93;;;5.93;;
17915;SDS011;9083;49.156;8.982;2023-04-07T10:26:50;7.50;;;5.63;;
17915;SDS011;9083;49.156;8.982;2023-04-07T10:29:18;11.27;;;6.10;;
17915;SDS011;9083;49.156;8.982;2023-04-07T10:31:45;10.13;;;7.07;;
17915;SDS011;9083;49.156;8.982;2023-04-07T10:34:11;9.63;;;6.70;;
17915;SDS011;9083;49.156;8.982;2023-04-07T10:39:21;12.50;;;5.90;;
17915;SDS011;9083;49.156;8.982;2023-04-07T10:41:48;10.17;;;5.73;;
17915;SDS011;9083;49.156;8.982;2023-04-07T10:47:03;9.30;;;5.50;;
17915;SDS011;9083;49.156;8.982;2023-04-07T10:49:31;12.17;;;6.00;;
17915;SDS011;9083;49.156;8.982;2023-04-07T10:54:44;9.70;;;5.40;;
17915;SDS011;9083;49.156;8.982;2023-04-07T10:57:11;8.93;;;5.27;;
17915;SDS011;9083;49.156;8.982;2023-04-07T10:59:39;9.37;;;4.97;;
17915;SDS011;9083;49.156;8.982;2023-04-07T11:04:51;7.43;;;4.63;;
17915;SDS011;9083;49.156;8.982;2023-04-07T11:07:17;8.57;;;4.97;;
17915;SDS011;9083;49.156;8.982;2023-04-07T11:09:46;8.50;;;5.03;;
17915;SDS011;9083;49.156;8.982;2023-04-07T11:12:21;5.90;;;4.60;;
17915;SDS011;9083;49.156;8.982;2023-04-07T11:14:47;5.07;;;3.73;;
17915;SDS011;9083;49.156;8.982;2023-04-07T11:17:14;5.57;;;4.53;;
17915;SDS011;9083;49.156;8.982;2023-04-07T11:19:49;5.87;;;4.30;;
17915;SDS011;9083;49.156;8.982;2023-04-07T11:22:16;9.37;;;3.80;;
17915;SDS011;9083;49.156;8.982;2023-04-07T11:24:44;5.53;;;3.60;;
17915;SDS011;9083;49.156;8.982;2023-04-07T11:27:12;5.83;;;3.50;;
17915;SDS011;9083;49.156;8.982;2023-04-07T11:29:39;8.63;;;4.27;;
17915;SDS011;9083;49.156;8.982;2023-04-07T11:32:05;5.73;;;3.63;;
17915;SDS011;9083;49.156;8.982;2023-04-07T11:34:32;2.80;;;2.50;;
17915;SDS011;9083;49.156;8.982;2023-04-07T11:39:40;6.93;;;3.83;;
17915;SDS011;9083;49.156;8.982;2023-04-07T11:42:07;5.93;;;3.40;;
17915;SDS011;9083;49.156;8.982;2023-04-07T11:44:35;9.03;;;4.07;;
17915;SDS011;9083;49.156;8.982;2023-04-07T11:47:09;3.67;;;3.20;;
17915;SDS011;9083;49.156;8.982;2023-04-07T11:49:43;3.67;;;2.70;;
17915;SDS011;9083;49.156;8.982;2023-04-07T11:52:09;5.57;;;3.47;;
17915;SDS011;9083;49.156;8.982;2023-04-07T11:54:40;4.43;;;3.50;;
17915;SDS011;9083;49.156;8.982;2023-04-07T11:57:06;6.57;;;3.10;;
17915;SDS011;9083;49.156;8.982;2023-04-07T11:59:37;5.87;;;2.67;;
17915;SDS011;9083;49.156;8.982;2023-04-07T12:02:03;7.77;;;3.07;;
17915;SDS011;9083;49.156;8.982;2023-04-07T12:04:30;6.07;;;3.20;;
17915;SDS011;9083;49.156;8.982;2023-04-07T12:07:05;3.07;;;2.60;;
17915;SDS011;9083;49.156;8.982;2023-04-07T12:09:33;3.43;;;2.50;;
17915;SDS011;9083;49.156;8.982;2023-04-07T12:12:00;6.00;;;2.37;;
17915;SDS011;9083;49.156;8.982;2023-04-07T12:14:27;3.63;;;2.40;;
17915;SDS011;9083;49.156;8.982;2023-04-07T12:16:55;3.43;;;2.57;;
17915;SDS011;9083;49.156;8.982;2023-04-07T12:19:22;3.47;;;2.60;;
17915;SDS011;9083;49.156;8.982;2023-04-07T12:21:48;4.13;;;2.57;;
17915;SDS011;9083;49.156;8.982;2023-04-07T12:24:15;4.23;;;2.57;;
17915;SDS011;9083;49.156;8.982;2023-04-07T12:26:41;3.77;;;2.60;;
17915;SDS011;9083;49.156;8.982;2023-04-07T12:29:08;3.97;;;2.43;;
17915;SDS011;9083;49.156;8.982;2023-04-07T12:31:34;5.87;;;2.70;;
17915;SDS011;9083;49.156;8.982;2023-04-07T12:34:02;3.47;;;2.40;;
17915;SDS011;9083;49.156;8.982;2023-04-07T12:36:29;4.87;;;2.53;;
17915;SDS011;9083;49.156;8.982;2023-04-07T12:38:55;3.53;;;2.60;;
17915;SDS011;9083;49.156;8.982;2023-04-07T12:41:22;4.60;;;2.57;;
17915;SDS011;9083;49.156;8.982;2023-04-07T12:43:48;4.40;;;2.37;;
17915;SDS011;9083;49.156;8.982;2023-04-07T12:46:14;4.07;;;2.20;;
17915;SDS011;9083;49.156;8.982;2023-04-07T12:48:41;6.77;;;2.60;;
17915;SDS011;9083;49.156;8.982;2023-04-07T12:51:09;5.57;;;2.23;;
17915;SDS011;9083;49.156;8.982;2023-04-07T12:53:35;3.57;;;1.80;;
17915;SDS011;9083;49.156;8.982;2023-04-07T12:56:02;4.73;;;2.10;;
17915;SDS011;9083;49.156;8.982;2023-04-07T12:58:29;3.37;;;1.83;;
17915;SDS011;9083;49.156;8.982;2023-04-07T13:00:55;4.17;;;1.90;;
17915;SDS011;9083;49.156;8.982;2023-04-07T13:03:22;3.67;;;2.47;;
17915;SDS011;9083;49.156;8.982;2023-04-07T13:05:48;3.07;;;2.00;;
17915;SDS011;9083;49.156;8.982;2023-04-07T13:08:16;4.63;;;2.43;;
17915;SDS011;9083;49.156;8.982;2023-04-07T13:10:43;2.67;;;2.43;;
17915;SDS011;9083;49.156;8.982;2023-04-07T13:13:09;5.53;;;2.60;;
17915;SDS011;9083;49.156;8.982;2023-04-07T13:15:36;7.70;;;3.30;;
17915;SDS011;9083;49.156;8.982;2023-04-07T13:18:02;3.20;;;2.90;;
17915;SDS011;9083;49.156;8.982;2023-04-07T13:20:28;8.70;;;3.33;;
17915;SDS011;9083;49.156;8.982;2023-04-07T13:22:55;3.10;;;2.80;;
17915;SDS011;9083;49.156;8.982;2023-04-07T13:25:23;4.97;;;2.70;;
17915;SDS011;9083;49.156;8.982;2023-04-07T13:27:49;7.10;;;3.33;;
17915;SDS011;9083;49.156;8.982;2023-04-07T13:30:16;3.27;;;1.87;;
17915;SDS011;9083;49.156;8.982;2023-04-07T13:32:42;4.30;;;1.70;;
17915;SDS011;9083;49.156;8.982;2023-04-07T13:35:09;1.83;;;1.70;;
17915;SDS011;9083;49.156;8.982;2023-04-07T13:37:35;2.33;;;1.93;;
17915;SDS011;9083;49.156;8.982;2023-04-07T13:40:01;2.67;;;2.00;;
17915;SDS011;9083;49.156;8.982;2023-04-07T13:42:29;5.57;;;3.67;;
17915;SDS011;9083;49.156;8.982;2023-04-07T13:44:56;2.73;;;2.53;;
17915;SDS011;9083;49.156;8.982;2023-04-07T13:47:22;5.87;;;2.70;;
17915;SDS011;9083;49.156;8.982;2023-04-07T13:49:49;3.73;;;1.93;;
17915;SDS011;9083;49.156;8.982;2023-04-07T13:52:16;2.83;;;2.60;;
17915;SDS011;9083;49.156;8.982;2023-04-07T13:54:43;4.77;;;2.57;;
17915;SDS011;9083;49.156;8.982;2023-04-07T13:57:10;3.07;;;2.53;;
17915;SDS011;9083;49.156;8.982;2023-04-07T13:59:39;4.27;;;2.77;;
17915;SDS011;9083;49.156;8.982;2023-04-07T14:02:06;4.27;;;2.60;;
17915;SDS011;9083;49.156;8.982;2023-04-07T14:04:32;6.97;;;2.50;;
17915;SDS011;9083;49.156;8.982;2023-04-07T14:06:59;3.80;;;2.97;;
17915;SDS011;9083;49.156;8.982;2023-04-07T14:09:25;6.40;;;3.40;;
17915;SDS011;9083;49.156;8.982;2023-04-07T14:11:52;2.93;;;2.07;;
17915;SDS011;9083;49.156;8.982;2023-04-07T14:14:18;2.30;;;2.10;;
17915;SDS011;9083;49.156;8.982;2023-04-07T14:16:46;5.53;;;2.30;;
17915;SDS011;9083;49.156;8.982;2023-04-07T14:19:15;4.13;;;1.83;;
17915;SDS011;9083;49.156;8.982;2023-04-07T14:21:41;2.00;;;1.90;;
17915;SDS011;9083;49.156;8.982;2023-04-07T14:24:07;2.13;;;1.93;;
17915;SDS011;9083;49.156;8.982;2023-04-07T14:26:34;1.80;;;1.70;;
17915;SDS011;9083;49.156;8.982;2023-04-07T14:29:00;2.83;;;2.10;;
17915;SDS011;9083;49.156;8.982;2023-04-07T14:31:27;6.90;;;2.00;;
17915;SDS011;9083;49.156;8.982;2023-04-07T14:33:55;3.97;;;1.90;;
17915;SDS011;9083;49.156;8.982;2023-04-07T14:36:22;2.97;;;1.90;;
17915;SDS011;9083;49.156;8.982;2023-04-07T14:38:48;1.57;;;1.40;;
17915;SDS011;9083;49.156;8.982;2023-04-07T14:41:15;1.20;;;1.20;;
17915;SDS011;9083;49.156;8.982;2023-04-07T14:43:42;2.80;;;1.40;;
17915;SDS011;9083;49.156;8.982;2023-04-07T14:46:08;4.80;;;1.80;;
17915;SDS011;9083;49.156;8.982;2023-04-07T14:48:36;2.53;;;1.40;;
17915;SDS011;9083;49.156;8.982;2023-04-07T14:51:08;1.87;;;1.63;;
17915;SDS011;9083;49.156;8.982;2023-04-07T14:53:35;1.80;;;1.20;;
17915;SDS011;9083;49.156;8.982;2023-04-07T14:56:02;1.10;;;1.10;;
17915;SDS011;9083;49.156;8.982;2023-04-07T14:58:29;5.17;;;1.33;;
17915;SDS011;9083;49.156;8.982;2023-04-07T15:00:55;3.27;;;1.60;;
17915;SDS011;9083;49.156;8.982;2023-04-07T15:03:21;2.50;;;1.90;;
17915;SDS011;9083;49.156;8.982;2023-04-07T15:05:48;1.90;;;1.33;;
17915;SDS011;9083;49.156;8.982;2023-04-07T15:08:16;2.07;;;1.87;;